TRA71L EHEH-LEIB
Flight info
| Callsign | TRA71L |
|---|---|
| Flight time | 2h 9m |
| Altitude | 35000 |
| Route | LNO Z283 RITAX UT27 ROUSY DCT GTQ DCT POGOL DCT LASAT DCT MOROK DCT GILIR DCT GEVEA DCT INCUS DCT BALSI DCT RETNO DCT TUPOX DCT MTG DCT DIVKO DCT VATIR/N0466F310 DCT PIVUS DCT SULID DCT DIMIB DCT POS |
| Aircraft | B738/M-SDE2E3FGHIRWXY/LB1 |
Departure
| Time | 2026-05-07 14:09 |
|---|---|
| Airport | Eindhoven Airport (EHEH) |
Arrival
| Time | 2026-05-07 16:18 |
|---|---|
| Airport | Ibiza Airport (LEIB) |
| Time | Latitude | Longitude | Altitude | Speed | Heading |
|---|---|---|---|---|---|
| 2026-05-07 13:46 | 51.45856 | 5.39056 | 66 ft | 0 kts | 125° |
| 2026-05-07 13:59 | 51.45860 | 5.39045 | 74 ft | 4 kts | 124° |
| 2026-05-07 13:59 | 51.45875 | 5.39009 | 65 ft | 4 kts | 122° |
| 2026-05-07 14:00 | 51.45880 | 5.38998 | 74 ft | 4 kts | 123° |
| 2026-05-07 14:00 | 51.45893 | 5.38967 | 63 ft | 4 kts | 136° |
| 2026-05-07 14:00 | 51.45910 | 5.38955 | 72 ft | 4 kts | 212° |
| 2026-05-07 14:00 | 51.45930 | 5.38983 | 70 ft | 4 kts | 221° |
| 2026-05-07 14:01 | 51.45940 | 5.38996 | 74 ft | 0 kts | 213° |
| 2026-05-07 14:02 | 51.45940 | 5.38995 | 74 ft | 0 kts | 213° |
| 2026-05-07 14:02 | 51.45928 | 5.38984 | 74 ft | 4 kts | 213° |
| 2026-05-07 14:03 | 51.45882 | 5.38934 | 74 ft | 11 kts | 214° |
| 2026-05-07 14:03 | 51.45806 | 5.38849 | 67 ft | 14 kts | 215° |
| 2026-05-07 14:03 | 51.45816 | 5.38724 | 70 ft | 13 kts | 305° |
| 2026-05-07 14:03 | 51.45867 | 5.38608 | 65 ft | 13 kts | 305° |
| 2026-05-07 14:04 | 51.45918 | 5.38491 | 75 ft | 14 kts | 305° |
| 2026-05-07 14:04 | 51.45981 | 5.38353 | 71 ft | 12 kts | 306° |
| 2026-05-07 14:04 | 51.45978 | 5.38251 | 68 ft | 11 kts | 219° |
| 2026-05-07 14:04 | 51.45909 | 5.38174 | 67 ft | 15 kts | 214° |
| 2026-05-07 14:05 | 51.45797 | 5.38052 | 72 ft | 23 kts | 215° |
| 2026-05-07 14:05 | 51.45646 | 5.37882 | 65 ft | 28 kts | 214° |
| 2026-05-07 14:05 | 51.45489 | 5.37706 | 68 ft | 27 kts | 215° |
| 2026-05-07 14:05 | 51.45342 | 5.37540 | 71 ft | 25 kts | 215° |
| 2026-05-07 14:06 | 51.45204 | 5.37385 | 71 ft | 23 kts | 215° |
| 2026-05-07 14:06 | 51.45074 | 5.37240 | 69 ft | 22 kts | 214° |
| 2026-05-07 14:06 | 51.44947 | 5.37098 | 72 ft | 22 kts | 214° |
| 2026-05-07 14:06 | 51.44824 | 5.36961 | 66 ft | 21 kts | 215° |
| 2026-05-07 14:07 | 51.44705 | 5.36828 | 74 ft | 21 kts | 215° |
| 2026-05-07 14:07 | 51.44589 | 5.36698 | 72 ft | 20 kts | 215° |
| 2026-05-07 14:07 | 51.44477 | 5.36572 | 73 ft | 19 kts | 215° |
| 2026-05-07 14:07 | 51.44368 | 5.36450 | 70 ft | 19 kts | 215° |
| 2026-05-07 14:08 | 51.44263 | 5.36333 | 70 ft | 18 kts | 215° |
| 2026-05-07 14:08 | 51.44175 | 5.36270 | 69 ft | 13 kts | 155° |
| 2026-05-07 14:08 | 51.44120 | 5.36376 | 72 ft | 12 kts | 123° |
| 2026-05-07 14:08 | 51.44146 | 5.36479 | 68 ft | 12 kts | 33° |
| 2026-05-07 14:09 | 51.44318 | 5.36673 | 70 ft | 62 kts | 35° |
| 2026-05-07 14:09 | 51.44857 | 5.37278 | 70 ft | 125 kts | 34° |
| 2026-05-07 14:09 | 51.45697 | 5.38198 | 215 ft | 162 kts | 33° |
| 2026-05-07 14:09 | 51.46635 | 5.39208 | 825 ft | 167 kts | 34° |
| 2026-05-07 14:10 | 51.47639 | 5.40325 | 1380 ft | 179 kts | 34° |
| 2026-05-07 14:10 | 51.48651 | 5.41472 | 2085 ft | 180 kts | 35° |
| 2026-05-07 14:10 | 51.49704 | 5.42683 | 2610 ft | 197 kts | 35° |
| 2026-05-07 14:10 | 51.50840 | 5.44084 | 2927 ft | 214 kts | 47° |
| 2026-05-07 14:11 | 51.51463 | 5.46288 | 3278 ft | 227 kts | 86° |
| 2026-05-07 14:11 | 51.51129 | 5.48782 | 3814 ft | 235 kts | 109° |
| 2026-05-07 14:11 | 51.50591 | 5.51294 | 4495 ft | 240 kts | 107° |
| 2026-05-07 14:11 | 51.50107 | 5.53853 | 5266 ft | 240 kts | 105° |
| 2026-05-07 14:12 | 51.49659 | 5.56415 | 6075 ft | 238 kts | 105° |
| 2026-05-07 14:12 | 51.49248 | 5.59010 | 6629 ft | 247 kts | 102° |
| 2026-05-07 14:12 | 51.48853 | 5.61838 | 6874 ft | 269 kts | 101° |
| 2026-05-07 14:12 | 51.48344 | 5.64768 | 7468 ft | 277 kts | 118° |
| 2026-05-07 14:13 | 51.47047 | 5.67044 | 8163 ft | 280 kts | 144° |
| 2026-05-07 14:13 | 51.45422 | 5.68785 | 8880 ft | 284 kts | 146° |
| 2026-05-07 14:13 | 51.43759 | 5.70517 | 9583 ft | 286 kts | 147° |
| 2026-05-07 14:13 | 51.42074 | 5.72260 | 10246 ft | 290 kts | 147° |
| 2026-05-07 14:14 | 51.40328 | 5.74078 | 10525 ft | 312 kts | 147° |
| 2026-05-07 14:14 | 51.38452 | 5.76029 | 10687 ft | 332 kts | 147° |
| 2026-05-07 14:14 | 51.36460 | 5.78116 | 10853 ft | 351 kts | 147° |
| 2026-05-07 14:14 | 51.34357 | 5.80318 | 10991 ft | 371 kts | 146° |
| 2026-05-07 14:15 | 51.32156 | 5.82636 | 11348 ft | 384 kts | 147° |
| 2026-05-07 14:15 | 51.29916 | 5.84991 | 11915 ft | 387 kts | 147° |
| 2026-05-07 14:15 | 51.27658 | 5.87362 | 12481 ft | 390 kts | 147° |
| 2026-05-07 14:15 | 51.25344 | 5.89662 | 13106 ft | 392 kts | 154° |
| 2026-05-07 14:16 | 51.22709 | 5.90755 | 13696 ft | 394 kts | 174° |
| 2026-05-07 14:16 | 51.19975 | 5.91259 | 14229 ft | 398 kts | 172° |
| 2026-05-07 14:16 | 51.17218 | 5.91875 | 14765 ft | 401 kts | 173° |
| 2026-05-07 14:16 | 51.14435 | 5.92442 | 15363 ft | 405 kts | 173° |
| 2026-05-07 14:17 | 51.11629 | 5.93014 | 16001 ft | 407 kts | 173° |
| 2026-05-07 14:17 | 51.08802 | 5.93196 | 16539 ft | 410 kts | 188° |
| 2026-05-07 14:17 | 51.06038 | 5.92034 | 17109 ft | 412 kts | 198° |
| 2026-05-07 14:17 | 51.03286 | 5.90704 | 17633 ft | 415 kts | 197° |
| 2026-05-07 14:18 | 51.00503 | 5.89424 | 18142 ft | 419 kts | 196° |
| 2026-05-07 14:18 | 50.97690 | 5.88160 | 18641 ft | 422 kts | 196° |
| 2026-05-07 14:18 | 50.94857 | 5.86903 | 19140 ft | 425 kts | 196° |
| 2026-05-07 14:18 | 50.91996 | 5.85641 | 19625 ft | 428 kts | 196° |
| 2026-05-07 14:19 | 50.89119 | 5.84375 | 20094 ft | 431 kts | 196° |
| 2026-05-07 14:19 | 50.86229 | 5.83103 | 20552 ft | 433 kts | 196° |
| 2026-05-07 14:19 | 50.83312 | 5.81820 | 20986 ft | 436 kts | 196° |
| 2026-05-07 14:19 | 50.80382 | 5.80531 | 21410 ft | 439 kts | 196° |
| 2026-05-07 14:20 | 50.77430 | 5.79234 | 21824 ft | 442 kts | 196° |
| 2026-05-07 14:20 | 50.74496 | 5.77947 | 22214 ft | 444 kts | 196° |
| 2026-05-07 14:20 | 50.71473 | 5.76623 | 22615 ft | 447 kts | 196° |
| 2026-05-07 14:20 | 50.68465 | 5.75307 | 22991 ft | 449 kts | 196° |
| 2026-05-07 14:21 | 50.65447 | 5.73986 | 23354 ft | 452 kts | 196° |
| 2026-05-07 14:21 | 50.62448 | 5.72678 | 23713 ft | 454 kts | 196° |
| 2026-05-07 14:21 | 50.59385 | 5.71405 | 24045 ft | 457 kts | 191° |
| 2026-05-07 14:21 | 50.56210 | 5.71183 | 24346 ft | 461 kts | 173° |
| 2026-05-07 14:22 | 50.53042 | 5.71912 | 24739 ft | 461 kts | 172° |
| 2026-05-07 14:22 | 50.49855 | 5.72625 | 25035 ft | 464 kts | 172° |
| 2026-05-07 14:22 | 50.46648 | 5.73298 | 25315 ft | 466 kts | 173° |
| 2026-05-07 14:22 | 50.43421 | 5.73939 | 25609 ft | 468 kts | 173° |
| 2026-05-07 14:23 | 50.40183 | 5.74564 | 25902 ft | 470 kts | 173° |
| 2026-05-07 14:23 | 50.36927 | 5.75183 | 26198 ft | 472 kts | 173° |
| 2026-05-07 14:23 | 50.33663 | 5.75805 | 26474 ft | 473 kts | 173° |
| 2026-05-07 14:23 | 50.30392 | 5.76428 | 26738 ft | 475 kts | 173° |
| 2026-05-07 14:24 | 50.27108 | 5.77053 | 27084 ft | 474 kts | 173° |
| 2026-05-07 14:24 | 50.23838 | 5.77677 | 27494 ft | 472 kts | 173° |
| 2026-05-07 14:24 | 50.20583 | 5.78293 | 27897 ft | 471 kts | 173° |
| 2026-05-07 14:24 | 50.17338 | 5.78905 | 28253 ft | 470 kts | 173° |
| 2026-05-07 14:25 | 50.14094 | 5.79515 | 28587 ft | 470 kts | 173° |
| 2026-05-07 14:25 | 50.10854 | 5.80125 | 28945 ft | 469 kts | 173° |
| 2026-05-07 14:25 | 50.07631 | 5.80825 | 29297 ft | 468 kts | 169° |
| 2026-05-07 14:25 | 50.04495 | 5.82187 | 29628 ft | 467 kts | 162° |
| 2026-05-07 14:26 | 50.01417 | 5.83815 | 29976 ft | 466 kts | 161° |
| 2026-05-07 14:26 | 49.98360 | 5.85461 | 30316 ft | 465 kts | 161° |
| 2026-05-07 14:26 | 49.95296 | 5.87101 | 30609 ft | 465 kts | 161° |
| 2026-05-07 14:26 | 49.92227 | 5.88722 | 30916 ft | 465 kts | 161° |
| 2026-05-07 14:27 | 49.89165 | 5.90317 | 31232 ft | 465 kts | 162° |
| 2026-05-07 14:27 | 49.86095 | 5.91902 | 31523 ft | 464 kts | 162° |
| 2026-05-07 14:27 | 49.83027 | 5.93475 | 31795 ft | 465 kts | 162° |
| 2026-05-07 14:27 | 49.79959 | 5.95044 | 32073 ft | 464 kts | 162° |
| 2026-05-07 14:28 | 49.76896 | 5.96610 | 32355 ft | 463 kts | 162° |
| 2026-05-07 14:28 | 49.73834 | 5.98173 | 32633 ft | 463 kts | 162° |
| 2026-05-07 14:28 | 49.70774 | 5.99734 | 32910 ft | 463 kts | 162° |
| 2026-05-07 14:28 | 49.67722 | 6.01290 | 33190 ft | 462 kts | 162° |
| 2026-05-07 14:29 | 49.64668 | 6.02845 | 33448 ft | 462 kts | 162° |
| 2026-05-07 14:29 | 49.61615 | 6.04397 | 33670 ft | 462 kts | 162° |
| 2026-05-07 14:29 | 49.58564 | 6.05948 | 33900 ft | 462 kts | 162° |
| 2026-05-07 14:29 | 49.55508 | 6.07499 | 34130 ft | 462 kts | 162° |
| 2026-05-07 14:30 | 49.52462 | 6.09040 | 34363 ft | 462 kts | 162° |
| 2026-05-07 14:30 | 49.49426 | 6.10664 | 34589 ft | 462 kts | 157° |
| 2026-05-07 14:30 | 49.46555 | 6.12886 | 34782 ft | 463 kts | 149° |
| 2026-05-07 14:30 | 49.43944 | 6.15771 | 35010 ft | 463 kts | 141° |
| 2026-05-07 14:31 | 49.41441 | 6.18912 | 35032 ft | 466 kts | 141° |
| 2026-05-07 14:31 | 49.36442 | 6.25245 | 35041 ft | 465 kts | 141° |
| 2026-05-07 14:32 | 49.31444 | 6.31478 | 35041 ft | 462 kts | 141° |
| 2026-05-07 14:32 | 49.26448 | 6.37633 | 35046 ft | 460 kts | 142° |
| 2026-05-07 14:33 | 49.21463 | 6.43745 | 35044 ft | 459 kts | 142° |
| 2026-05-07 14:33 | 49.16481 | 6.49841 | 35048 ft | 459 kts | 142° |
| 2026-05-07 14:34 | 49.11490 | 6.55934 | 35047 ft | 460 kts | 142° |
| 2026-05-07 14:34 | 49.06509 | 6.62002 | 35047 ft | 462 kts | 142° |
| 2026-05-07 14:35 | 49.01439 | 6.68049 | 35043 ft | 463 kts | 148° |
| 2026-05-07 14:35 | 48.98571 | 6.70236 | 35049 ft | 462 kts | 162° |
| 2026-05-07 14:35 | 48.95460 | 6.71406 | 35047 ft | 461 kts | 174° |
| 2026-05-07 14:36 | 48.89065 | 6.71389 | 35052 ft | 461 kts | 183° |
| 2026-05-07 14:36 | 48.82649 | 6.71007 | 35046 ft | 462 kts | 183° |
| 2026-05-07 14:37 | 48.76217 | 6.70705 | 35047 ft | 462 kts | 182° |
| 2026-05-07 14:37 | 48.66576 | 6.70329 | 35045 ft | 462 kts | 182° |
| 2026-05-07 14:38 | 48.60157 | 6.70084 | 35047 ft | 461 kts | 182° |
| 2026-05-07 14:38 | 48.53741 | 6.69836 | 35046 ft | 461 kts | 182° |
| 2026-05-07 14:39 | 48.47332 | 6.69588 | 35047 ft | 460 kts | 182° |
| 2026-05-07 14:39 | 48.40937 | 6.69340 | 35047 ft | 460 kts | 182° |
| 2026-05-07 14:40 | 48.34550 | 6.69098 | 35045 ft | 459 kts | 182° |
| 2026-05-07 14:40 | 48.28157 | 6.68859 | 35046 ft | 459 kts | 182° |
| 2026-05-07 14:41 | 48.21768 | 6.68619 | 35047 ft | 459 kts | 182° |
| 2026-05-07 14:41 | 48.15381 | 6.68380 | 35048 ft | 459 kts | 182° |
| 2026-05-07 14:42 | 48.09034 | 6.68145 | 35045 ft | 459 kts | 182° |
| 2026-05-07 14:42 | 48.02642 | 6.67904 | 35044 ft | 459 kts | 182° |
| 2026-05-07 14:43 | 47.96254 | 6.67668 | 35051 ft | 459 kts | 183° |
| 2026-05-07 14:43 | 47.89864 | 6.67434 | 35046 ft | 460 kts | 183° |
| 2026-05-07 14:44 | 47.84507 | 6.67236 | 35048 ft | 459 kts | 182° |
| 2026-05-07 14:44 | 47.78158 | 6.67003 | 35047 ft | 459 kts | 183° |
| 2026-05-07 14:45 | 47.71772 | 6.66769 | 35037 ft | 459 kts | 183° |
| 2026-05-07 14:45 | 47.65384 | 6.66534 | 35036 ft | 459 kts | 183° |
| 2026-05-07 14:46 | 47.58989 | 6.66301 | 35029 ft | 459 kts | 183° |
| 2026-05-07 14:46 | 47.52599 | 6.66067 | 35027 ft | 459 kts | 183° |
| 2026-05-07 14:47 | 47.46218 | 6.65836 | 35029 ft | 459 kts | 183° |
| 2026-05-07 14:47 | 47.39966 | 6.64429 | 35032 ft | 454 kts | 203° |
| 2026-05-07 14:48 | 47.37147 | 6.62367 | 35028 ft | 452 kts | 214° |
| 2026-05-07 14:48 | 47.34667 | 6.59542 | 35040 ft | 450 kts | 222° |
| 2026-05-07 14:48 | 47.29960 | 6.53474 | 35036 ft | 450 kts | 222° |
| 2026-05-07 14:49 | 47.25216 | 6.47441 | 35037 ft | 450 kts | 221° |
| 2026-05-07 14:49 | 47.20442 | 6.41471 | 35037 ft | 451 kts | 221° |
| 2026-05-07 14:50 | 47.15651 | 6.35508 | 35037 ft | 451 kts | 221° |
| 2026-05-07 14:50 | 47.10859 | 6.29554 | 35034 ft | 452 kts | 221° |
| 2026-05-07 14:51 | 47.05539 | 6.24694 | 35043 ft | 455 kts | 202° |
| 2026-05-07 14:51 | 46.99348 | 6.22760 | 35042 ft | 458 kts | 187° |
| 2026-05-07 14:52 | 46.93036 | 6.22015 | 35025 ft | 458 kts | 186° |
| 2026-05-07 14:52 | 46.86679 | 6.21262 | 35027 ft | 458 kts | 187° |
| 2026-05-07 14:53 | 46.80339 | 6.20446 | 35032 ft | 458 kts | 187° |
| 2026-05-07 14:53 | 46.73993 | 6.19603 | 35018 ft | 458 kts | 187° |
| 2026-05-07 14:54 | 46.67645 | 6.18755 | 35013 ft | 458 kts | 187° |
| 2026-05-07 14:54 | 46.61298 | 6.17915 | 35012 ft | 458 kts | 187° |
| 2026-05-07 14:55 | 46.54955 | 6.17077 | 35003 ft | 458 kts | 187° |
| 2026-05-07 14:55 | 46.48603 | 6.16240 | 34999 ft | 458 kts | 187° |
| 2026-05-07 14:56 | 46.42262 | 6.15407 | 34997 ft | 457 kts | 187° |
| 2026-05-07 14:56 | 46.35929 | 6.14577 | 34983 ft | 457 kts | 187° |
| 2026-05-07 14:57 | 46.29607 | 6.13750 | 34989 ft | 456 kts | 187° |
| 2026-05-07 14:57 | 46.23283 | 6.12833 | 34992 ft | 455 kts | 190° |
| 2026-05-07 14:58 | 46.17022 | 6.11446 | 34988 ft | 455 kts | 192° |
| 2026-05-07 14:58 | 46.10816 | 6.09993 | 35007 ft | 455 kts | 191° |
| 2026-05-07 14:59 | 46.04549 | 6.08583 | 34989 ft | 456 kts | 191° |
| 2026-05-07 14:59 | 45.98281 | 6.07203 | 34987 ft | 456 kts | 191° |
| 2026-05-07 15:00 | 45.92002 | 6.05826 | 34982 ft | 456 kts | 191° |
| 2026-05-07 15:00 | 45.85728 | 6.04451 | 34997 ft | 456 kts | 191° |
| 2026-05-07 15:01 | 45.79460 | 6.03072 | 34994 ft | 456 kts | 191° |
| 2026-05-07 15:01 | 45.73185 | 6.01687 | 34983 ft | 456 kts | 191° |
| 2026-05-07 15:02 | 45.66901 | 6.00304 | 34980 ft | 456 kts | 191° |
| 2026-05-07 15:02 | 45.60627 | 5.98929 | 34980 ft | 455 kts | 191° |
| 2026-05-07 15:03 | 45.54385 | 5.97562 | 34967 ft | 453 kts | 191° |
| 2026-05-07 15:03 | 45.48165 | 5.96202 | 34964 ft | 451 kts | 192° |
| 2026-05-07 15:04 | 45.42038 | 5.94476 | 34965 ft | 447 kts | 195° |
| 2026-05-07 15:04 | 45.35987 | 5.92518 | 34978 ft | 445 kts | 195° |
| 2026-05-07 15:05 | 45.29949 | 5.90580 | 34976 ft | 444 kts | 195° |
| 2026-05-07 15:05 | 45.23909 | 5.88681 | 34971 ft | 445 kts | 195° |
| 2026-05-07 15:06 | 45.17856 | 5.86801 | 34979 ft | 446 kts | 195° |
| 2026-05-07 15:06 | 45.11787 | 5.84924 | 34983 ft | 447 kts | 195° |
| 2026-05-07 15:07 | 45.05714 | 5.83048 | 34975 ft | 448 kts | 195° |
| 2026-05-07 15:07 | 44.99622 | 5.81172 | 35002 ft | 447 kts | 194° |
| 2026-05-07 15:08 | 44.93533 | 5.79300 | 34977 ft | 448 kts | 195° |
| 2026-05-07 15:08 | 44.87446 | 5.77431 | 34974 ft | 447 kts | 195° |
| 2026-05-07 15:09 | 44.81367 | 5.75570 | 34982 ft | 447 kts | 194° |
| 2026-05-07 15:09 | 44.75295 | 5.73714 | 34978 ft | 447 kts | 194° |
| 2026-05-07 15:10 | 44.69266 | 5.71876 | 34966 ft | 446 kts | 194° |
| 2026-05-07 15:10 | 44.63208 | 5.70033 | 34972 ft | 446 kts | 194° |
| 2026-05-07 15:11 | 44.57146 | 5.68191 | 34971 ft | 445 kts | 194° |
| 2026-05-07 15:11 | 44.51093 | 5.66355 | 34958 ft | 445 kts | 194° |
| 2026-05-07 15:12 | 44.45042 | 5.64526 | 34955 ft | 444 kts | 194° |
| 2026-05-07 15:12 | 44.39012 | 5.62704 | 34958 ft | 443 kts | 195° |
| 2026-05-07 15:13 | 44.33219 | 5.59954 | 34967 ft | 439 kts | 204° |
| 2026-05-07 15:13 | 44.27556 | 5.56727 | 34959 ft | 440 kts | 204° |
| 2026-05-07 15:14 | 44.21876 | 5.53550 | 34965 ft | 440 kts | 204° |
| 2026-05-07 15:14 | 44.16181 | 5.50424 | 34970 ft | 440 kts | 203° |
| 2026-05-07 15:15 | 44.10472 | 5.47308 | 34966 ft | 441 kts | 203° |
| 2026-05-07 15:15 | 44.04757 | 5.44194 | 34961 ft | 442 kts | 203° |
| 2026-05-07 15:16 | 43.99033 | 5.41080 | 34963 ft | 442 kts | 203° |
| 2026-05-07 15:16 | 43.93300 | 5.37973 | 34966 ft | 442 kts | 203° |
| 2026-05-07 15:17 | 43.87573 | 5.34885 | 34958 ft | 441 kts | 203° |
| 2026-05-07 15:17 | 43.81857 | 5.31807 | 34950 ft | 440 kts | 203° |
| 2026-05-07 15:18 | 43.76187 | 5.28760 | 34955 ft | 440 kts | 203° |
| 2026-05-07 15:18 | 43.70489 | 5.25702 | 34955 ft | 439 kts | 203° |
| 2026-05-07 15:19 | 43.64797 | 5.22654 | 34966 ft | 439 kts | 203° |
| 2026-05-07 15:19 | 43.59106 | 5.19611 | 34964 ft | 438 kts | 203° |
| 2026-05-07 15:20 | 43.53417 | 5.16577 | 34965 ft | 438 kts | 203° |
| 2026-05-07 15:20 | 43.47729 | 5.13550 | 34965 ft | 438 kts | 203° |
| 2026-05-07 15:21 | 43.42041 | 5.10528 | 34961 ft | 438 kts | 203° |
| 2026-05-07 15:21 | 43.36573 | 5.06956 | 34957 ft | 434 kts | 216° |
| 2026-05-07 15:22 | 43.31618 | 5.02202 | 34960 ft | 434 kts | 216° |
| 2026-05-07 15:22 | 43.26662 | 4.97458 | 34962 ft | 434 kts | 216° |
| 2026-05-07 15:23 | 43.21692 | 4.92769 | 34964 ft | 434 kts | 216° |
| 2026-05-07 15:23 | 43.16715 | 4.88101 | 34962 ft | 433 kts | 216° |
| 2026-05-07 15:24 | 43.11742 | 4.83444 | 34962 ft | 433 kts | 216° |
| 2026-05-07 15:24 | 43.06799 | 4.78822 | 34964 ft | 433 kts | 216° |
| 2026-05-07 15:25 | 43.01626 | 4.74489 | 34966 ft | 434 kts | 211° |
| 2026-05-07 15:25 | 42.96354 | 4.70578 | 34962 ft | 434 kts | 210° |
| 2026-05-07 15:26 | 42.91011 | 4.66622 | 34965 ft | 433 kts | 210° |
| 2026-05-07 15:26 | 42.85765 | 4.62690 | 34973 ft | 433 kts | 211° |
| 2026-05-07 15:27 | 42.80462 | 4.58695 | 34972 ft | 432 kts | 211° |
| 2026-05-07 15:27 | 42.75238 | 4.54765 | 34972 ft | 432 kts | 211° |
| 2026-05-07 15:28 | 42.69982 | 4.50819 | 34975 ft | 432 kts | 211° |
| 2026-05-07 15:28 | 42.64725 | 4.46879 | 34968 ft | 431 kts | 211° |
| 2026-05-07 15:29 | 42.59471 | 4.42948 | 34963 ft | 431 kts | 211° |
| 2026-05-07 15:29 | 42.54221 | 4.39027 | 34964 ft | 430 kts | 211° |
| 2026-05-07 15:30 | 42.48979 | 4.35121 | 34963 ft | 430 kts | 210° |
| 2026-05-07 15:30 | 42.43741 | 4.31227 | 34962 ft | 429 kts | 210° |
| 2026-05-07 15:31 | 42.38513 | 4.27347 | 34961 ft | 428 kts | 210° |
| 2026-05-07 15:31 | 42.33293 | 4.23480 | 34964 ft | 428 kts | 210° |
| 2026-05-07 15:32 | 42.28077 | 4.19622 | 34961 ft | 427 kts | 210° |
| 2026-05-07 15:32 | 42.22866 | 4.15776 | 34965 ft | 427 kts | 210° |
| 2026-05-07 15:33 | 42.18539 | 4.12588 | 34962 ft | 427 kts | 210° |
| 2026-05-07 15:33 | 42.13327 | 4.08752 | 34961 ft | 426 kts | 210° |
| 2026-05-07 15:34 | 42.08126 | 4.04929 | 34965 ft | 426 kts | 210° |
| 2026-05-07 15:34 | 42.02930 | 4.01113 | 34961 ft | 425 kts | 210° |
| 2026-05-07 15:35 | 41.97742 | 3.97309 | 34964 ft | 425 kts | 210° |
| 2026-05-07 15:35 | 41.92544 | 3.93508 | 34964 ft | 426 kts | 210° |
| 2026-05-07 15:36 | 41.87273 | 3.89854 | 34963 ft | 427 kts | 208° |
| 2026-05-07 15:36 | 41.81977 | 3.86341 | 34967 ft | 427 kts | 208° |
| 2026-05-07 15:37 | 41.76649 | 3.82799 | 34963 ft | 428 kts | 208° |
| 2026-05-07 15:37 | 41.71293 | 3.79217 | 34963 ft | 427 kts | 208° |
| 2026-05-07 15:38 | 41.66005 | 3.75679 | 34963 ft | 427 kts | 208° |
| 2026-05-07 15:38 | 41.60687 | 3.72125 | 34965 ft | 428 kts | 208° |
| 2026-05-07 15:39 | 41.55359 | 3.68571 | 34962 ft | 428 kts | 208° |
| 2026-05-07 15:39 | 41.50035 | 3.65026 | 34962 ft | 428 kts | 208° |
| 2026-05-07 15:40 | 41.44699 | 3.61479 | 34964 ft | 428 kts | 208° |
| 2026-05-07 15:40 | 41.39370 | 3.57948 | 34963 ft | 428 kts | 208° |
| 2026-05-07 15:41 | 41.34036 | 3.54417 | 34967 ft | 428 kts | 208° |
| 2026-05-07 15:41 | 41.28698 | 3.50889 | 34963 ft | 428 kts | 208° |
| 2026-05-07 15:42 | 41.23358 | 3.47365 | 34965 ft | 428 kts | 208° |
| 2026-05-07 15:42 | 41.17939 | 3.44065 | 34956 ft | 431 kts | 200° |
| 2026-05-07 15:43 | 41.12075 | 3.42334 | 34962 ft | 433 kts | 193° |
| 2026-05-07 15:43 | 41.06148 | 3.40837 | 34964 ft | 433 kts | 193° |
| 2026-05-07 15:44 | 41.00229 | 3.39307 | 34963 ft | 434 kts | 193° |
| 2026-05-07 15:44 | 40.94300 | 3.37756 | 34961 ft | 433 kts | 193° |
| 2026-05-07 15:45 | 40.88385 | 3.36204 | 34963 ft | 433 kts | 193° |
| 2026-05-07 15:45 | 40.82476 | 3.34653 | 34963 ft | 433 kts | 193° |
| 2026-05-07 15:46 | 40.73641 | 3.32343 | 34966 ft | 433 kts | 193° |
| 2026-05-07 15:47 | 40.67725 | 3.30803 | 34964 ft | 433 kts | 193° |
| 2026-05-07 15:47 | 40.61771 | 3.29252 | 34957 ft | 434 kts | 193° |
| 2026-05-07 15:48 | 40.55888 | 3.27723 | 34943 ft | 434 kts | 193° |
| 2026-05-07 15:48 | 40.49960 | 3.26184 | 34947 ft | 434 kts | 193° |
| 2026-05-07 15:49 | 40.44033 | 3.24650 | 34944 ft | 434 kts | 193° |
| 2026-05-07 15:49 | 40.38107 | 3.23119 | 34943 ft | 434 kts | 193° |
| 2026-05-07 15:50 | 40.32182 | 3.21590 | 34944 ft | 434 kts | 193° |
| 2026-05-07 15:50 | 40.26253 | 3.20067 | 34942 ft | 434 kts | 193° |
| 2026-05-07 15:51 | 40.20330 | 3.18550 | 34946 ft | 433 kts | 193° |
| 2026-05-07 15:51 | 40.14411 | 3.17035 | 34948 ft | 433 kts | 193° |
| 2026-05-07 15:52 | 40.08494 | 3.15524 | 34942 ft | 433 kts | 193° |
| 2026-05-07 15:52 | 40.02577 | 3.14015 | 34940 ft | 433 kts | 193° |
| 2026-05-07 15:53 | 39.96663 | 3.12508 | 34945 ft | 432 kts | 193° |
| 2026-05-07 15:53 | 39.90912 | 3.10397 | 34945 ft | 428 kts | 210° |
| 2026-05-07 15:54 | 39.85752 | 3.06539 | 34949 ft | 428 kts | 211° |
| 2026-05-07 15:54 | 39.80581 | 3.02684 | 34943 ft | 429 kts | 210° |
| 2026-05-07 15:55 | 39.75381 | 2.98876 | 34940 ft | 429 kts | 210° |
| 2026-05-07 15:55 | 39.70197 | 2.95110 | 34948 ft | 430 kts | 210° |
| 2026-05-07 15:56 | 39.64976 | 2.91326 | 34930 ft | 430 kts | 210° |
| 2026-05-07 15:56 | 39.59751 | 2.87542 | 34937 ft | 430 kts | 210° |
| 2026-05-07 15:57 | 39.54529 | 2.83770 | 34935 ft | 430 kts | 210° |
| 2026-05-07 15:57 | 39.49303 | 2.79998 | 34938 ft | 430 kts | 210° |
| 2026-05-07 15:58 | 39.44109 | 2.76166 | 34924 ft | 430 kts | 216° |
| 2026-05-07 15:58 | 39.41933 | 2.73549 | 34954 ft | 429 kts | 229° |
| 2026-05-07 15:58 | 39.40049 | 2.70550 | 34931 ft | 430 kts | 230° |
| 2026-05-07 15:59 | 39.36327 | 2.64509 | 34939 ft | 430 kts | 230° |
| 2026-05-07 15:59 | 39.32563 | 2.58463 | 34381 ft | 436 kts | 230° |
| 2026-05-07 15:59 | 39.30665 | 2.55442 | 33767 ft | 433 kts | 230° |
| 2026-05-07 16:00 | 39.28762 | 2.52425 | 33049 ft | 433 kts | 230° |
| 2026-05-07 16:00 | 39.26860 | 2.49419 | 32312 ft | 433 kts | 230° |
| 2026-05-07 16:00 | 39.24952 | 2.46409 | 31544 ft | 434 kts | 229° |
| 2026-05-07 16:00 | 39.23046 | 2.43404 | 30754 ft | 435 kts | 229° |
| 2026-05-07 16:01 | 39.21118 | 2.40368 | 29927 ft | 437 kts | 229° |
| 2026-05-07 16:01 | 39.19188 | 2.37330 | 29048 ft | 438 kts | 229° |
| 2026-05-07 16:01 | 39.17251 | 2.34286 | 28129 ft | 440 kts | 229° |
| 2026-05-07 16:01 | 39.15307 | 2.31235 | 27170 ft | 443 kts | 230° |
| 2026-05-07 16:02 | 39.13354 | 2.28169 | 26395 ft | 441 kts | 230° |
| 2026-05-07 16:02 | 39.11418 | 2.25133 | 25698 ft | 437 kts | 230° |
| 2026-05-07 16:02 | 39.09500 | 2.22129 | 25000 ft | 433 kts | 230° |
| 2026-05-07 16:02 | 39.07595 | 2.19144 | 24321 ft | 429 kts | 230° |
| 2026-05-07 16:03 | 39.05708 | 2.16190 | 23647 ft | 426 kts | 230° |
| 2026-05-07 16:03 | 39.03833 | 2.13260 | 22967 ft | 422 kts | 230° |
| 2026-05-07 16:03 | 39.01979 | 2.10367 | 22301 ft | 419 kts | 230° |
| 2026-05-07 16:03 | 39.00126 | 2.07480 | 21632 ft | 416 kts | 230° |
| 2026-05-07 16:04 | 38.98309 | 2.04651 | 20979 ft | 417 kts | 230° |
| 2026-05-07 16:04 | 38.96460 | 2.01799 | 20313 ft | 414 kts | 230° |
| 2026-05-07 16:04 | 38.94640 | 1.98955 | 19644 ft | 410 kts | 230° |
| 2026-05-07 16:04 | 38.92814 | 1.96105 | 18985 ft | 407 kts | 230° |
| 2026-05-07 16:05 | 38.91101 | 1.93284 | 18322 ft | 405 kts | 237° |
| 2026-05-07 16:05 | 38.90015 | 1.89965 | 17576 ft | 406 kts | 254° |
| 2026-05-07 16:05 | 38.89338 | 1.86460 | 16891 ft | 404 kts | 255° |
| 2026-05-07 16:05 | 38.88654 | 1.82940 | 16235 ft | 400 kts | 255° |
| 2026-05-07 16:06 | 38.87976 | 1.79528 | 15613 ft | 397 kts | 255° |
| 2026-05-07 16:06 | 38.87283 | 1.76109 | 14989 ft | 394 kts | 254° |
| 2026-05-07 16:06 | 38.86588 | 1.72721 | 14352 ft | 391 kts | 254° |
| 2026-05-07 16:06 | 38.85894 | 1.69361 | 13745 ft | 388 kts | 254° |
| 2026-05-07 16:07 | 38.85205 | 1.66024 | 13129 ft | 385 kts | 255° |
| 2026-05-07 16:07 | 38.84520 | 1.62716 | 12512 ft | 383 kts | 255° |
| 2026-05-07 16:07 | 38.83840 | 1.59437 | 11980 ft | 378 kts | 255° |
| 2026-05-07 16:07 | 38.83154 | 1.56270 | 11913 ft | 361 kts | 253° |
| 2026-05-07 16:08 | 38.82475 | 1.53222 | 11743 ft | 349 kts | 253° |
| 2026-05-07 16:08 | 38.81820 | 1.50291 | 11606 ft | 336 kts | 253° |
| 2026-05-07 16:08 | 38.81191 | 1.47465 | 11520 ft | 323 kts | 253° |
| 2026-05-07 16:08 | 38.80586 | 1.44745 | 11441 ft | 311 kts | 253° |
| 2026-05-07 16:09 | 38.79933 | 1.42155 | 11348 ft | 300 kts | 246° |
| 2026-05-07 16:09 | 38.79006 | 1.39819 | 11282 ft | 289 kts | 240° |
| 2026-05-07 16:09 | 38.78033 | 1.37609 | 11100 ft | 283 kts | 240° |
| 2026-05-07 16:09 | 38.77078 | 1.35413 | 10790 ft | 282 kts | 241° |
| 2026-05-07 16:10 | 38.76144 | 1.33207 | 10460 ft | 282 kts | 241° |
| 2026-05-07 16:10 | 38.75217 | 1.30988 | 10137 ft | 282 kts | 242° |
| 2026-05-07 16:10 | 38.74298 | 1.28778 | 9833 ft | 280 kts | 242° |
| 2026-05-07 16:10 | 38.73387 | 1.26585 | 9462 ft | 278 kts | 242° |
| 2026-05-07 16:11 | 38.72475 | 1.24397 | 9045 ft | 279 kts | 242° |
| 2026-05-07 16:11 | 38.71567 | 1.22219 | 8618 ft | 277 kts | 242° |
| 2026-05-07 16:11 | 38.70660 | 1.20046 | 8189 ft | 276 kts | 242° |
| 2026-05-07 16:11 | 38.69760 | 1.17888 | 7676 ft | 278 kts | 242° |
| 2026-05-07 16:12 | 38.68878 | 1.15661 | 7079 ft | 282 kts | 250° |
| 2026-05-07 16:12 | 38.68785 | 1.13214 | 6538 ft | 280 kts | 287° |
| 2026-05-07 16:12 | 38.69726 | 1.11070 | 6081 ft | 276 kts | 313° |
| 2026-05-07 16:12 | 38.71248 | 1.09624 | 5618 ft | 272 kts | 336° |
| 2026-05-07 16:13 | 38.73093 | 1.09099 | 5125 ft | 272 kts | 2° |
| 2026-05-07 16:13 | 38.74890 | 1.09670 | 4604 ft | 266 kts | 30° |
| 2026-05-07 16:13 | 38.76273 | 1.11204 | 4081 ft | 264 kts | 56° |
| 2026-05-07 16:13 | 38.77216 | 1.13195 | 3657 ft | 260 kts | 60° |
| 2026-05-07 16:14 | 38.78099 | 1.15184 | 3372 ft | 251 kts | 62° |
| 2026-05-07 16:14 | 38.78929 | 1.17074 | 3199 ft | 232 kts | 62° |
| 2026-05-07 16:14 | 38.79663 | 1.18795 | 2922 ft | 210 kts | 63° |
| 2026-05-07 16:14 | 38.80322 | 1.20385 | 2673 ft | 195 kts | 63° |
| 2026-05-07 16:15 | 38.80927 | 1.21853 | 2427 ft | 183 kts | 62° |
| 2026-05-07 16:15 | 38.81534 | 1.23224 | 2187 ft | 171 kts | 64° |
| 2026-05-07 16:15 | 38.82039 | 1.24528 | 1977 ft | 155 kts | 64° |
| 2026-05-07 16:15 | 38.82516 | 1.25727 | 1789 ft | 153 kts | 64° |
| 2026-05-07 16:16 | 38.83001 | 1.26943 | 1591 ft | 153 kts | 65° |
| 2026-05-07 16:16 | 38.83469 | 1.28155 | 1463 ft | 151 kts | 63° |
| 2026-05-07 16:16 | 38.83967 | 1.29348 | 1252 ft | 154 kts | 62° |
| 2026-05-07 16:16 | 38.84478 | 1.30560 | 1032 ft | 154 kts | 62° |
| 2026-05-07 16:17 | 38.84980 | 1.31751 | 856 ft | 149 kts | 62° |
| 2026-05-07 16:17 | 38.85470 | 1.32897 | 694 ft | 145 kts | 60° |
| 2026-05-07 16:17 | 38.85961 | 1.34027 | 466 ft | 145 kts | 63° |
| 2026-05-07 16:17 | 38.86417 | 1.35185 | 201 ft | 145 kts | 64° |
| 2026-05-07 16:18 | 38.86877 | 1.36323 | 9 ft | 138 kts | 62° |
| 2026-05-07 16:18 | 38.87274 | 1.37286 | 6 ft | 101 kts | 62° |
| 2026-05-07 16:18 | 38.87519 | 1.37881 | 4 ft | 56 kts | 62° |
| 2026-05-07 16:18 | 38.87645 | 1.38183 | 8 ft | 23 kts | 60° |
| 2026-05-07 16:19 | 38.87749 | 1.38231 | 7 ft | 14 kts | 332° |
| 2026-05-07 16:19 | 38.87806 | 1.38187 | 7 ft | 9 kts | 324° |
| 2026-05-07 16:19 | 38.87806 | 1.38119 | 8 ft | 8 kts | 236° |
| 2026-05-07 16:19 | 38.87778 | 1.38053 | 7 ft | 8 kts | 242° |
| 2026-05-07 16:20 | 38.87752 | 1.37988 | 7 ft | 9 kts | 242° |
| 2026-05-07 16:20 | 38.87718 | 1.37907 | 8 ft | 12 kts | 242° |
| 2026-05-07 16:20 | 38.87675 | 1.37803 | 7 ft | 13 kts | 242° |
| 2026-05-07 16:20 | 38.87632 | 1.37701 | 7 ft | 13 kts | 242° |
| 2026-05-07 16:21 | 38.87592 | 1.37604 | 8 ft | 11 kts | 242° |
| 2026-05-07 16:21 | 38.87611 | 1.37539 | 7 ft | 9 kts | 331° |
| 2026-05-07 16:21 | 38.87666 | 1.37501 | 7 ft | 9 kts | 332° |
| 2026-05-07 16:21 | 38.87697 | 1.37443 | 7 ft | 9 kts | 266° |
| 2026-05-07 16:22 | 38.87685 | 1.37395 | 7 ft | 8 kts | 244° |
| 2026-05-07 16:22 | 38.87657 | 1.37331 | 9 ft | 8 kts | 241° |
| 2026-05-07 16:22 | 38.87631 | 1.37268 | 7 ft | 8 kts | 242° |
| 2026-05-07 16:22 | 38.87606 | 1.37207 | 8 ft | 8 kts | 242° |
| 2026-05-07 16:23 | 38.87581 | 1.37148 | 7 ft | 7 kts | 242° |
| 2026-05-07 16:23 | 38.87577 | 1.37089 | 7 ft | 7 kts | 310° |
| 2026-05-07 16:23 | 38.87613 | 1.37064 | 8 ft | 3 kts | 333° |
| 2026-05-07 16:23 | 38.87621 | 1.37059 | 7 ft | 0 kts | 333° |